Time;durP1;ratioP1;P1;durP2;ratioP2;P2;SDS_P1;SDS_P2;PMS_P1;PMS_P2;Temp;Humidity;BMP_temperature;BMP_pressure;BME280_temperature;BME280_humidity;BME280_pressure;Samples;Min_cycle;Max_cycle;Signal;HPM_P1;HPM_P2
2021/04/04 00:00:30;;;;;;;26.52;6.90;;;6.90;99.90;;;;;;5078061;28;20561;-69
2021/04/04 00:02:56;;;;;;;24.73;8.38;;;6.90;99.90;;;;;;5074432;28;20484;-68
2021/04/04 00:05:22;;;;;;;30.70;8.00;;;6.80;99.90;;;;;;5070481;28;20029;-69
2021/04/04 00:07:48;;;;;;;24.33;7.13;;;6.80;99.90;;;;;;5073167;28;20031;-70
2021/04/04 00:10:14;;;;;;;25.05;7.15;;;6.80;99.90;;;;;;5070908;28;20028;-69
2021/04/04 00:12:41;;;;;;;29.42;8.10;;;6.70;99.90;;;;;;5073675;28;20031;-69
2021/04/04 00:15:08;;;;;;;21.95;7.57;;;6.60;99.90;;;;;;5072987;28;20041;-69
2021/04/04 00:17:34;;;;;;;23.15;8.05;;;6.60;99.90;;;;;;5074179;28;20016;-69
2021/04/04 00:19:59;;;;;;;26.20;8.10;;;6.50;99.90;;;;;;5071662;28;20482;-69
2021/04/04 00:22:25;;;;;;;24.38;7.80;;;6.50;99.90;;;;;;5072560;28;20025;-69
2021/04/04 00:24:50;;;;;;;41.67;8.85;;;6.50;99.90;;;;;;5071103;28;20032;-69
2021/04/04 00:27:16;;;;;;;23.30;7.60;;;6.50;99.90;;;;;;5069193;28;20025;-69
2021/04/04 00:29:42;;;;;;;23.98;7.35;;;6.60;99.90;;;;;;5073018;28;20056;-69
2021/04/04 00:32:07;;;;;;;21.40;7.68;;;6.60;99.90;;;;;;5068896;28;20405;-69
2021/04/04 00:34:33;;;;;;;34.03;9.60;;;6.60;99.90;;;;;;5076087;28;20381;-69
2021/04/04 00:36:58;;;;;;;28.85;7.55;;;6.70;99.90;;;;;;5075970;28;20025;-69
2021/04/04 00:39:24;;;;;;;24.27;7.15;;;6.70;99.90;;;;;;5067860;28;20484;-69
2021/04/04 00:41:50;;;;;;;29.20;8.23;;;6.70;99.90;;;;;;5070842;28;20493;-70
2021/04/04 00:44:16;;;;;;;28.13;8.50;;;6.80;99.90;;;;;;5079088;28;20031;-69
2021/04/04 00:46:41;;;;;;;29.13;8.77;;;6.80;99.90;;;;;;5071379;28;20021;-70
2021/04/04 00:49:07;;;;;;;33.38;8.82;;;6.80;99.90;;;;;;5075858;28;20047;-70
2021/04/04 00:51:33;;;;;;;27.95;10.38;;;6.80;99.90;;;;;;5075689;28;20016;-71
2021/04/04 00:53:59;;;;;;;30.95;9.75;;;6.80;99.90;;;;;;5066003;28;20032;-71
2021/04/04 00:56:25;;;;;;;31.40;9.50;;;6.80;99.90;;;;;;5072080;28;20075;-70
2021/04/04 00:58:52;;;;;;;33.45;9.70;;;6.80;99.90;;;;;;5068993;28;20103;-71
2021/04/04 01:01:17;;;;;;;29.15;9.68;;;6.80;99.90;;;;;;5069796;28;20029;-71
2021/04/04 01:03:43;;;;;;;33.35;9.25;;;6.80;99.90;;;;;;5067704;28;20032;-70
2021/04/04 01:06:09;;;;;;;30.13;8.50;;;6.80;99.90;;;;;;5072848;28;20449;-71
2021/04/04 01:08:39;;;;;;;33.67;10.32;;;6.80;99.90;;;;;;5067851;28;20462;-69
2021/04/04 01:11:07;;;;;;;31.92;9.68;;;6.90;99.90;;;;;;5065325;28;20490;-69
2021/04/04 01:14:10;;;;;;;29.63;9.80;;;6.80;99.90;;;;;;5072394;28;20035;-69
2021/04/04 01:16:41;;;;;;;27.17;8.30;;;6.90;99.90;;;;;;5071591;28;20105;-69
2021/04/04 01:19:30;;;;;;;22.10;7.88;;;7.00;99.90;;;;;;5071828;28;20029;-69
2021/04/04 01:22:14;;;;;;;29.58;8.32;;;7.00;99.90;;;;;;5070245;28;20040;-69
2021/04/04 01:25:08;;;;;;;35.47;8.15;;;7.00;99.90;;;;;;5069373;28;20534;-70
2021/04/04 01:27:47;;;;;;;31.63;8.60;;;7.00;99.90;;;;;;5071027;28;20041;-69
2021/04/04 01:30:15;;;;;;;40.65;7.75;;;6.90;99.90;;;;;;5071795;28;20569;-69
2021/04/04 01:32:44;;;;;;;33.25;8.32;;;7.00;99.90;;;;;;5068764;28;20043;-70
2021/04/04 01:35:11;;;;;;;24.83;8.40;;;7.00;99.90;;;;;;5067654;28;20021;-69
2021/04/04 01:37:39;;;;;;;31.90;7.70;;;7.00;99.90;;;;;;5072221;28;20029;-69
2021/04/04 01:40:07;;;;;;;33.70;8.05;;;7.00;99.90;;;;;;5070648;28;20141;-69
2021/04/04 01:42:36;;;;;;;27.02;7.50;;;7.00;99.90;;;;;;5068909;28;20012;-69
2021/04/04 01:45:03;;;;;;;31.15;7.35;;;7.00;99.90;;;;;;5065230;28;20027;-69
2021/04/04 01:47:29;;;;;;;25.88;7.00;;;7.10;99.90;;;;;;5063126;28;20025;-69
2021/04/04 01:49:56;;;;;;;27.95;7.93;;;7.10;99.90;;;;;;5069272;28;20151;-69
2021/04/04 01:52:22;;;;;;;27.83;7.32;;;7.10;99.90;;;;;;5065793;28;20107;-70
2021/04/04 01:54:48;;;;;;;31.48;7.35;;;7.10;99.90;;;;;;5067048;28;20032;-70
2021/04/04 01:57:14;;;;;;;23.35;7.65;;;7.20;99.90;;;;;;5067907;28;20039;-70
2021/04/04 01:59:42;;;;;;;23.00;6.72;;;7.20;99.90;;;;;;5065053;28;20402;-69
2021/04/04 02:02:08;;;;;;;23.77;6.75;;;7.30;99.90;;;;;;5071486;28;20534;-69
2021/04/04 02:04:36;;;;;;;24.48;6.13;;;7.20;99.90;;;;;;5062735;28;20020;-70
2021/04/04 02:07:02;;;;;;;24.92;6.70;;;7.30;99.90;;;;;;5064422;28;20028;-69
2021/04/04 02:09:29;;;;;;;25.35;5.82;;;7.30;99.90;;;;;;5063572;28;20465;-70
2021/04/04 02:11:56;;;;;;;26.63;6.28;;;7.30;99.90;;;;;;5068233;28;20029;-69
2021/04/04 02:14:23;;;;;;;23.83;6.15;;;7.40;99.90;;;;;;5064382;28;20107;-69
2021/04/04 02:16:52;;;;;;;32.22;6.88;;;7.40;99.90;;;;;;5070501;28;20033;-69
2021/04/04 02:19:22;;;;;;;27.40;6.72;;;7.30;99.90;;;;;;5065899;28;20397;-69
2021/04/04 02:21:51;;;;;;;19.73;6.40;;;7.30;99.90;;;;;;5060515;28;20078;-70
2021/04/04 02:24:22;;;;;;;27.67;7.05;;;7.40;99.90;;;;;;5063772;28;20025;-70
2021/04/04 02:26:52;;;;;;;23.70;6.20;;;7.40;99.90;;;;;;5062249;28;20427;-69
2021/04/04 02:29:18;;;;;;;17.38;6.13;;;7.40;99.90;;;;;;5066002;28;20200;-70
2021/04/04 02:31:50;;;;;;;22.90;6.68;;;7.30;99.90;;;;;;5066745;28;20029;-70
2021/04/04 02:34:21;;;;;;;29.70;7.07;;;7.40;99.90;;;;;;5067338;28;20016;-71
2021/04/04 02:36:47;;;;;;;27.33;6.85;;;7.40;99.90;;;;;;5066518;28;20649;-69
2021/04/04 02:39:14;;;;;;;23.65;5.75;;;7.50;99.90;;;;;;5066446;28;20029;-69
2021/04/04 02:41:41;;;;;;;26.20;6.50;;;7.50;99.90;;;;;;5064455;28;20099;-70
2021/04/04 02:44:08;;;;;;;20.63;7.07;;;7.50;99.90;;;;;;5065866;28;20538;-70
2021/04/04 02:46:36;;;;;;;23.85;6.10;;;7.50;99.90;;;;;;5066750;28;20033;-69
2021/04/04 02:49:05;;;;;;;27.75;6.72;;;7.50;99.90;;;;;;5065567;28;20170;-70
2021/04/04 02:51:39;;;;;;;29.35;6.82;;;7.60;99.90;;;;;;5063225;28;20021;-69
2021/04/04 02:54:06;;;;;;;28.40;6.57;;;7.60;99.90;;;;;;5067347;28;20029;-70
2021/04/04 02:56:40;;;;;;;22.50;6.90;;;7.50;99.90;;;;;;5066741;28;20167;-70
2021/04/04 02:59:14;;;;;;;26.70;6.88;;;7.50;99.90;;;;;;5062278;28;20036;-71
2021/04/04 03:01:42;;;;;;;23.92;6.43;;;7.50;99.90;;;;;;5068522;28;20043;-70
2021/04/04 03:04:09;;;;;;;19.95;6.28;;;7.50;99.90;;;;;;5064845;28;20017;-71
2021/04/04 03:06:40;;;;;;;26.52;6.28;;;7.50;99.90;;;;;;5062613;28;20035;-72
2021/04/04 03:09:08;;;;;;;21.00;6.43;;;7.60;99.90;;;;;;5069249;28;20365;-69
2021/04/04 03:11:36;;;;;;;15.88;6.47;;;7.50;99.90;;;;;;5061572;28;20473;-69
2021/04/04 03:14:02;;;;;;;25.42;7.43;;;7.40;99.90;;;;;;5067501;28;20017;-69
2021/04/04 03:16:30;;;;;;;18.67;6.10;;;7.50;99.90;;;;;;5066681;28;20111;-70
2021/04/04 03:18:57;;;;;;;22.33;5.47;;;7.60;99.90;;;;;;5060822;28;20025;-69
2021/04/04 03:21:24;;;;;;;25.88;6.55;;;7.60;99.90;;;;;;5057484;28;20025;-69
2021/04/04 03:23:51;;;;;;;23.50;7.47;;;7.60;99.90;;;;;;5065520;28;20403;-69
2021/04/04 03:26:17;;;;;;;23.55;6.72;;;7.60;99.90;;;;;;5067141;28;20059;-69
2021/04/04 03:28:43;;;;;;;24.55;6.80;;;7.60;99.90;;;;;;5065909;28;20095;-69
2021/04/04 03:31:14;;;;;;;22.00;5.90;;;7.60;99.90;;;;;;5061915;28;20024;-69
2021/04/04 03:33:41;;;;;;;24.30;6.18;;;7.60;99.90;;;;;;5067687;28;20066;-69
2021/04/04 03:36:07;;;;;;;19.48;5.68;;;7.60;99.90;;;;;;5061213;28;20103;-69
2021/04/04 03:38:33;;;;;;;23.80;6.28;;;7.60;99.90;;;;;;5066504;28;20078;-69
2021/04/04 03:41:00;;;;;;;21.75;6.03;;;7.60;99.90;;;;;;5064377;28;20473;-70
2021/04/04 03:43:29;;;;;;;33.05;7.05;;;7.40;99.90;;;;;;5067950;28;20119;-71
2021/04/04 03:46:01;;;;;;;25.70;6.78;;;7.30;99.90;;;;;;5064643;28;20033;-72
2021/04/04 03:48:29;;;;;;;19.17;6.47;;;7.40;99.90;;;;;;5063857;28;20120;-70
2021/04/04 03:50:57;;;;;;;33.38;6.72;;;7.50;99.90;;;;;;5064846;28;20021;-69
2021/04/04 03:53:28;;;;;;;14.38;5.72;;;7.50;99.90;;;;;;5065191;28;20055;-69
2021/04/04 03:56:02;;;;;;;22.95;5.63;;;7.50;99.90;;;;;;5066850;28;20021;-69
2021/04/04 03:58:31;;;;;;;24.20;6.60;;;7.50;99.90;;;;;;5060826;28;20480;-69
2021/04/04 04:00:57;;;;;;;24.63;5.70;;;7.60;99.90;;;;;;5064365;28;20444;-69
2021/04/04 04:03:24;;;;;;;20.90;6.00;;;7.60;99.90;;;;;;5063506;28;20100;-69
2021/04/04 04:05:51;;;;;;;23.73;6.43;;;7.70;99.90;;;;;;5070306;28;20111;-69
2021/04/04 04:08:18;;;;;;;19.33;5.80;;;7.60;99.90;;;;;;5071493;28;20632;-69
2021/04/04 04:10:44;;;;;;;22.90;7.03;;;7.60;99.90;;;;;;5062658;28;20032;-71
2021/04/04 04:13:12;;;;;;;18.83;5.95;;;7.70;99.90;;;;;;5065416;28;20073;-70
2021/04/04 04:15:37;;;;;;;19.58;5.75;;;7.60;99.90;;;;;;5063921;28;20024;-70
2021/04/04 04:18:05;;;;;;;24.67;6.18;;;7.60;99.90;;;;;;5058418;28;20493;-71
2021/04/04 04:20:31;;;;;;;15.77;5.72;;;7.60;99.90;;;;;;5066447;28;20085;-70
2021/04/04 04:22:58;;;;;;;21.98;6.55;;;7.60;99.90;;;;;;5064742;28;20025;-71
2021/04/04 04:25:26;;;;;;;23.40;6.03;;;7.60;99.90;;;;;;5071834;28;20031;-70
2021/04/04 04:27:53;;;;;;;27.30;5.57;;;7.60;99.90;;;;;;5066938;28;20012;-71
2021/04/04 04:30:19;;;;;;;21.15;5.50;;;7.60;99.90;;;;;;5064595;28;20036;-71
2021/04/04 04:32:47;;;;;;;19.88;5.53;;;7.50;99.90;;;;;;5063715;28;20017;-70
2021/04/04 04:35:14;;;;;;;26.20;6.38;;;7.50;99.90;;;;;;5064435;28;20036;-71
2021/04/04 04:37:41;;;;;;;23.83;5.95;;;7.50;99.90;;;;;;5063169;28;20037;-70
2021/04/04 04:40:09;;;;;;;18.23;5.10;;;7.60;99.90;;;;;;5062777;28;20045;-71
2021/04/04 04:42:39;;;;;;;22.27;5.15;;;7.60;99.90;;;;;;5067088;28;20459;-69
2021/04/04 04:45:06;;;;;;;22.30;5.57;;;7.70;99.90;;;;;;5066012;28;20036;-70
2021/04/04 04:47:34;;;;;;;19.70;5.45;;;7.70;99.90;;;;;;5064548;28;20035;-69
2021/04/04 04:49:59;;;;;;;21.48;5.80;;;7.60;99.90;;;;;;5062710;28;20036;-71
2021/04/04 04:52:25;;;;;;;19.17;5.43;;;7.70;99.90;;;;;;5069237;28;20400;-71
2021/04/04 04:54:51;;;;;;;20.92;5.53;;;7.70;99.90;;;;;;5065589;28;20037;-71
2021/04/04 04:57:18;;;;;;;16.48;4.93;;;7.60;99.90;;;;;;5064129;28;20098;-71
2021/04/04 04:59:46;;;;;;;16.27;4.90;;;7.70;99.90;;;;;;5067922;28;20032;-70
2021/04/04 05:02:13;;;;;;;22.17;6.20;;;7.70;99.90;;;;;;5069961;28;20383;-71
2021/04/04 05:04:39;;;;;;;22.90;5.65;;;7.70;99.90;;;;;;5063709;28;20020;-71
2021/04/04 05:07:06;;;;;;;20.65;5.90;;;7.80;99.90;;;;;;5069872;28;20043;-70
2021/04/04 05:09:34;;;;;;;19.70;5.78;;;7.70;99.90;;;;;;5073325;28;20048;-71
2021/04/04 05:12:00;;;;;;;19.60;5.18;;;7.70;99.90;;;;;;5061644;28;20024;-70
2021/04/04 05:14:26;;;;;;;28.13;6.20;;;7.70;99.90;;;;;;5066872;28;20115;-71
2021/04/04 05:16:55;;;;;;;22.52;5.80;;;7.70;99.90;;;;;;5066305;28;20107;-70
2021/04/04 05:19:22;;;;;;;21.77;6.03;;;7.70;99.90;;;;;;5063202;28;20043;-71
2021/04/04 05:21:48;;;;;;;17.38;5.70;;;7.70;99.90;;;;;;5066875;28;20484;-71
2021/04/04 05:24:15;;;;;;;19.85;6.00;;;7.70;99.90;;;;;;5068643;28;20028;-71
2021/04/04 05:26:46;;;;;;;22.02;6.15;;;7.70;99.90;;;;;;5068075;28;20029;-71
2021/04/04 05:29:16;;;;;;;19.13;5.22;;;7.70;99.90;;;;;;5072264;28;20017;-71
2021/04/04 05:31:48;;;;;;;23.17;6.75;;;7.80;99.90;;;;;;5069775;28;20138;-70
2021/04/04 05:34:15;;;;;;;21.67;5.78;;;7.80;99.90;;;;;;5062707;28;20032;-69
2021/04/04 05:36:55;;;;;;;26.27;7.13;;;7.80;99.90;;;;;;5067463;28;20013;-69
2021/04/04 05:39:23;;;;;;;18.77;5.53;;;7.90;99.90;;;;;;5073707;28;20028;-69
2021/04/04 05:41:54;;;;;;;21.27;6.45;;;7.90;99.90;;;;;;5067111;28;20036;-70
2021/04/04 05:44:30;;;;;;;24.70;6.32;;;7.90;99.90;;;;;;5065274;28;20025;-70
2021/04/04 05:47:02;;;;;;;23.73;6.32;;;7.90;99.90;;;;;;5068745;28;20032;-69
2021/04/04 05:49:58;;;;;;;23.80;6.13;;;7.90;99.90;;;;;;5066465;28;20476;-70
2021/04/04 05:52:57;;;;;;;21.77;7.07;;;7.90;99.90;;;;;;5064257;28;20028;-69
2021/04/04 05:55:48;;;;;;;24.33;6.03;;;7.90;99.90;;;;;;5063603;28;20029;-69
2021/04/04 05:58:31;;;;;;;18.90;6.45;;;8.00;99.90;;;;;;5064811;28;20037;-69
2021/04/04 06:01:00;;;;;;;;;;;8.00;99.90;;;;;;5071076;28;20039;-70
2021/04/04 06:03:45;;;;;;;27.52;6.32;;;8.10;99.90;;;;;;5061379;28;19963;-70
2021/04/04 06:06:48;;;;;;;25.88;6.07;;;8.10;99.90;;;;;;5067408;28;20055;-70
2021/04/04 06:09:32;;;;;;;23.17;6.18;;;8.10;99.90;;;;;;5061844;28;20154;-70
2021/04/04 06:12:04;;;;;;;25.75;7.93;;;8.10;99.90;;;;;;5064637;28;20035;-71
2021/04/04 06:14:58;;;;;;;26.33;6.50;;;8.10;99.90;;;;;;5065062;28;20029;-69
2021/04/04 06:17:48;;;;;;;19.88;7.35;;;8.10;99.90;;;;;;5066560;28;20033;-70
2021/04/04 06:20:39;;;;;;;25.80;7.68;;;8.10;99.90;;;;;;5066716;28;20044;-69
2021/04/04 06:23:20;;;;;;;25.23;7.47;;;8.10;99.90;;;;;;5067450;28;20024;-69
2021/04/04 06:26:10;;;;;;;21.00;6.05;;;8.20;99.90;;;;;;5062312;28;20036;-71
2021/04/04 06:28:44;;;;;;;22.67;6.65;;;8.20;99.90;;;;;;5066955;28;20381;-71
2021/04/04 06:31:22;;;;;;;27.40;6.95;;;8.30;99.90;;;;;;5072072;28;20043;-70
2021/04/04 06:34:00;;;;;;;20.35;6.20;;;8.30;99.90;;;;;;5069983;28;20154;-71
2021/04/04 06:36:45;;;;;;;19.10;6.85;;;8.30;99.90;;;;;;5064498;28;20029;-70
2021/04/04 06:39:25;;;;;;;27.42;7.63;;;8.30;99.90;;;;;;5066353;28;20045;-71
2021/04/04 06:41:51;;;;;;;24.33;6.72;;;8.30;99.90;;;;;;5066294;28;20028;-71
2021/04/04 06:44:25;;;;;;;22.50;7.70;;;8.20;99.90;;;;;;5056887;28;20021;-71
2021/04/04 06:46:58;;;;;;;24.95;6.35;;;8.30;99.90;;;;;;5059979;28;20024;-70
2021/04/04 06:49:42;;;;;;;25.88;6.88;;;8.40;99.90;;;;;;5061707;28;20477;-70
2021/04/04 06:52:43;;;;;;;21.77;5.78;;;8.40;99.90;;;;;;5063303;28;20102;-71
2021/04/04 06:55:17;;;;;;;30.67;7.15;;;8.40;99.90;;;;;;5057721;28;20517;-71
2021/04/04 06:57:53;;;;;;;19.55;6.45;;;8.40;99.90;;;;;;5065215;28;20030;-70
2021/04/04 07:00:55;;;;;;;19.88;5.50;;;8.40;99.90;;;;;;5063072;28;20036;-71
2021/04/04 07:03:26;;;;;;;25.90;6.07;;;8.40;99.90;;;;;;5066038;28;20048;-71
2021/04/04 07:06:20;;;;;;;19.50;6.88;;;8.40;99.90;;;;;;5059340;28;20102;-70
2021/04/04 07:08:49;;;;;;;22.08;7.25;;;8.40;99.90;;;;;;5067186;28;20044;-71
2021/04/04 07:11:19;;;;;;;20.80;6.18;;;8.40;99.90;;;;;;5061947;28;20028;-70
2021/04/04 07:14:05;;;;;;;17.52;4.95;;;8.40;99.90;;;;;;5067563;28;20074;-71
2021/04/04 07:16:38;;;;;;;26.92;7.22;;;8.50;99.90;;;;;;5068199;28;20033;-71
2021/04/04 07:19:41;;;;;;;22.58;6.60;;;8.50;99.90;;;;;;5066943;28;20487;-70
2021/04/04 07:22:17;;;;;;;27.98;5.88;;;8.50;99.90;;;;;;5064379;28;20067;-69
2021/04/04 07:25:01;;;;;;;21.77;6.82;;;8.50;99.90;;;;;;5063771;28;20029;-69
2021/04/04 07:27:52;;;;;;;23.52;6.55;;;8.50;99.90;;;;;;5065765;28;20422;-69
2021/04/04 07:30:29;;;;;;;21.80;5.80;;;8.50;99.90;;;;;;5058069;28;20067;-69
2021/04/04 07:33:17;;;;;;;21.83;5.72;;;8.60;99.90;;;;;;5061289;28;20435;-69
2021/04/04 07:36:01;;;;;;;16.92;5.65;;;8.60;99.90;;;;;;5066484;28;20039;-70
2021/04/04 07:38:45;;;;;;;25.02;6.32;;;8.60;99.90;;;;;;5060312;28;20500;-69
2021/04/04 07:41:16;;;;;;;20.40;5.93;;;8.60;99.90;;;;;;5064077;28;20043;-69
2021/04/04 07:44:00;;;;;;;15.32;5.68;;;8.60;99.90;;;;;;5063394;28;20028;-69
2021/04/04 07:46:43;;;;;;;20.52;6.00;;;8.60;99.90;;;;;;5066522;28;20074;-69
2021/04/04 07:49:23;;;;;;;20.30;6.05;;;8.60;99.90;;;;;;5061751;28;20025;-69
2021/04/04 07:51:50;;;;;;;23.05;6.45;;;8.70;99.90;;;;;;5068141;28;20027;-70
2021/04/04 07:54:29;;;;;;;16.85;6.18;;;8.70;99.90;;;;;;5062698;28;20098;-69
2021/04/04 07:57:17;;;;;;;17.17;5.93;;;8.80;99.90;;;;;;5067228;28;20036;-69
2021/04/04 07:59:49;;;;;;;26.08;6.40;;;8.80;99.90;;;;;;5061682;28;20036;-69
2021/04/04 08:02:23;;;;;;;14.63;5.72;;;8.80;99.90;;;;;;5062497;28;20025;-69
2021/04/04 08:04:51;;;;;;;23.75;5.90;;;8.90;99.90;;;;;;5055850;28;20100;-69
2021/04/04 08:07:24;;;;;;;20.05;5.95;;;9.00;99.90;;;;;;5063151;28;20078;-69
2021/04/04 08:10:18;;;;;;;28.98;9.45;;;8.90;99.90;;;;;;5061029;28;20037;-69
2021/04/04 08:12:54;;;;;;;25.83;6.47;;;8.90;99.90;;;;;;5062333;28;20032;-69
2021/04/04 08:15:33;;;;;;;19.17;5.53;;;9.00;99.90;;;;;;5071801;28;20051;-68
2021/04/04 08:18:00;;;;;;;16.00;5.07;;;9.00;99.90;;;;;;5068190;28;20074;-69
2021/04/04 08:20:31;;;;;;;17.65;5.30;;;9.00;99.90;;;;;;5061838;28;20120;-69
2021/04/04 08:23:04;;;;;;;13.15;4.30;;;9.00;99.90;;;;;;5064826;28;20028;-69
2021/04/04 08:25:44;;;;;;;18.92;4.57;;;9.10;99.90;;;;;;5071071;28;20032;-69
2021/04/04 08:28:51;;;;;;;13.00;4.05;;;9.10;99.90;;;;;;5071717;28;20050;-69
2021/04/04 08:31:39;;;;;;;11.02;4.30;;;9.10;99.90;;;;;;5075425;28;20036;-70
2021/04/04 08:34:11;;;;;;;14.10;4.05;;;9.10;99.90;;;;;;5066175;28;20039;-70
2021/04/04 08:36:41;;;;;;;13.93;4.30;;;9.10;99.90;;;;;;5081432;28;20024;-70
2021/04/04 08:39:09;;;;;;;11.95;4.93;;;9.10;99.90;;;;;;5064524;28;20036;-69
2021/04/04 08:41:37;;;;;;;15.88;4.90;;;9.10;99.90;;;;;;5069078;28;20028;-70
2021/04/04 08:44:13;;;;;;;19.48;5.13;;;9.20;99.90;;;;;;5063911;28;20031;-70
2021/04/04 08:46:44;;;;;;;13.55;4.88;;;9.20;99.90;;;;;;5070372;28;20028;-69
2021/04/04 08:49:10;;;;;;;16.02;5.38;;;9.10;99.90;;;;;;5063948;28;20082;-70
2021/04/04 08:51:50;;;;;;;16.08;4.85;;;9.10;99.90;;;;;;5069115;28;20017;-70
2021/04/04 08:54:19;;;;;;;14.52;5.13;;;9.20;99.90;;;;;;5067585;28;20032;-70
2021/04/04 08:56:46;;;;;;;15.93;5.32;;;9.10;99.90;;;;;;5070638;28;20412;-69
2021/04/04 08:59:14;;;;;;;19.10;6.50;;;9.10;99.90;;;;;;5063839;28;20465;-70
2021/04/04 09:01:46;;;;;;;26.90;5.72;;;9.20;99.90;;;;;;5070288;28;20052;-70
2021/04/04 09:04:12;;;;;;;18.33;6.13;;;9.30;99.90;;;;;;5070570;28;20026;-70
2021/04/04 09:06:43;;;;;;;14.43;5.68;;;9.20;99.90;;;;;;5074352;28;20474;-70
2021/04/04 09:09:24;;;;;;;18.15;6.45;;;9.30;99.90;;;;;;5063566;28;20493;-69
2021/04/04 09:11:53;;;;;;;14.73;5.63;;;9.30;99.90;;;;;;5069780;28;20466;-69
2021/04/04 09:14:20;;;;;;;16.88;6.13;;;9.30;99.90;;;;;;5068255;28;20020;-70
2021/04/04 09:16:59;;;;;;;16.63;6.63;;;9.30;99.90;;;;;;5071381;28;20048;-70
2021/04/04 09:19:33;;;;;;;15.50;6.63;;;9.40;99.90;;;;;;5074540;28;20078;-70
2021/04/04 09:22:07;;;;;;;20.50;6.43;;;9.40;99.90;;;;;;5063602;28;20025;-70
2021/04/04 09:24:49;;;;;;;14.55;6.28;;;9.30;99.90;;;;;;5069563;28;20025;-70
2021/04/04 09:27:21;;;;;;;16.38;6.57;;;9.20;99.90;;;;;;5072575;28;20447;-70
2021/04/04 09:29:51;;;;;;;22.05;7.53;;;9.30;99.90;;;;;;5076735;28;20031;-69
2021/04/04 09:32:25;;;;;;;20.00;6.40;;;9.30;99.90;;;;;;5073128;28;20373;-69
2021/04/04 09:34:53;;;;;;;12.90;5.72;;;9.30;99.90;;;;;;5063317;28;20033;-70
2021/04/04 09:37:27;;;;;;;17.83;5.78;;;9.30;99.90;;;;;;5067540;28;20035;-70
2021/04/04 09:39:54;;;;;;;18.45;7.50;;;9.30;99.90;;;;;;5067712;28;20040;-69
2021/04/04 09:42:21;;;;;;;14.63;6.20;;;9.40;99.90;;;;;;5071244;28;20358;-69
2021/04/04 09:44:46;;;;;;;15.52;6.35;;;9.40;99.90;;;;;;5072019;28;20044;-69
2021/04/04 09:47:12;;;;;;;17.38;5.90;;;9.40;99.90;;;;;;5070876;28;20563;-69
2021/04/04 09:49:50;;;;;;;14.50;5.85;;;9.50;99.90;;;;;;5072896;28;20095;-69
2021/04/04 09:52:17;;;;;;;18.10;6.43;;;9.40;99.90;;;;;;5062589;28;20120;-69
2021/04/04 09:55:05;;;;;;;15.73;5.53;;;9.40;99.90;;;;;;5070779;28;20461;-69
2021/04/04 09:57:42;;;;;;;17.98;5.78;;;9.60;99.90;;;;;;5064676;28;20047;-69
2021/04/04 10:00:29;;;;;;;17.48;6.78;;;9.70;99.90;;;;;;5069351;28;20122;-69
2021/04/04 10:02:57;;;;;;;17.08;6.40;;;9.70;99.90;;;;;;5064882;28;20036;-69
2021/04/04 10:05:27;;;;;;;12.80;6.40;;;9.70;99.00;;;;;;5065032;28;20021;-69
2021/04/04 10:07:53;;;;;;;10.23;5.50;;;9.80;99.00;;;;;;5066689;28;20060;-69
2021/04/04 10:10:31;;;;;;;11.93;6.03;;;9.80;99.00;;;;;;5067754;28;20048;-68
2021/04/04 10:13:01;;;;;;;14.60;5.60;;;9.80;99.40;;;;;;5062987;28;20035;-69
2021/04/04 10:15:27;;;;;;;19.55;7.30;;;9.90;99.50;;;;;;5068540;28;20048;-68
2021/04/04 10:17:57;;;;;;;14.85;6.55;;;9.90;99.90;;;;;;5067112;28;20056;-69
2021/04/04 10:20:51;;;;;;;14.27;6.18;;;9.90;99.40;;;;;;5058826;28;20044;-68
2021/04/04 10:23:18;;;;;;;16.00;6.38;;;9.90;99.50;;;;;;5066409;28;20040;-69
2021/04/04 10:25:56;;;;;;;19.67;7.70;;;9.90;99.30;;;;;;5061626;28;20037;-69
2021/04/04 10:28:22;;;;;;;15.93;6.03;;;9.90;99.50;;;;;;5066837;28;20021;-69
2021/04/04 10:30:55;;;;;;;11.35;6.15;;;10.00;99.90;;;;;;5066422;28;20097;-68
2021/04/04 10:33:26;;;;;;;13.70;6.43;;;10.00;98.90;;;;;;5061640;28;20408;-68
2021/04/04 10:35:55;;;;;;;22.10;7.28;;;10.00;98.70;;;;;;5061965;28;20035;-68
2021/04/04 10:38:25;;;;;;;13.60;7.55;;;10.00;99.30;;;;;;5067090;28;20508;-69
2021/04/04 10:40:53;;;;;;;15.27;6.60;;;10.00;99.50;;;;;;5062427;28;20397;-68
2021/04/04 10:43:21;;;;;;;18.13;7.80;;;10.00;99.60;;;;;;5065294;28;20024;-68
2021/04/04 10:45:59;;;;;;;16.42;6.07;;;9.90;98.90;;;;;;5069953;28;20381;-69
2021/04/04 10:48:25;;;;;;;15.38;6.78;;;10.10;99.90;;;;;;5060996;28;20029;-69
2021/04/04 10:50:51;;;;;;;19.25;7.88;;;10.40;99.60;;;;;;5067302;28;20028;-68
2021/04/04 10:53:17;;;;;;;16.08;7.50;;;10.30;99.10;;;;;;5055014;28;20083;-68
2021/04/04 10:55:44;;;;;;;18.08;7.75;;;10.30;98.80;;;;;;5061420;28;20488;-69
2021/04/04 10:58:10;;;;;;;17.35;7.93;;;10.20;98.60;;;;;;5058975;28;20056;-69
2021/04/04 11:00:37;;;;;;;14.18;7.47;;;10.20;98.00;;;;;;5066811;28;20032;-70
2021/04/04 11:03:03;;;;;;;20.88;8.38;;;10.10;98.50;;;;;;5060117;28;20037;-70
2021/04/04 11:05:29;;;;;;;15.65;7.95;;;10.10;98.60;;;;;;5060073;28;20043;-70
2021/04/04 11:07:55;;;;;;;18.25;8.43;;;10.10;99.10;;;;;;5065798;28;20505;-70
2021/04/04 11:10:21;;;;;;;19.70;9.65;;;10.20;98.20;;;;;;5065781;28;20032;-70
2021/04/04 11:12:48;;;;;;;20.08;8.30;;;10.20;98.30;;;;;;5064643;28;20025;-70
2021/04/04 11:15:16;;;;;;;17.67;8.52;;;10.30;98.40;;;;;;5064849;28;20033;-70
2021/04/04 11:17:44;;;;;;;19.90;10.15;;;10.30;98.80;;;;;;5068779;28;20480;-69
2021/04/04 11:20:15;;;;;;;24.65;9.45;;;10.30;99.10;;;;;;5071484;28;20085;-70
2021/04/04 11:22:41;;;;;;;20.05;10.73;;;10.40;98.80;;;;;;5066784;28;20024;-69
2021/04/04 11:25:10;;;;;;;17.33;9.18;;;10.40;98.50;;;;;;5067812;28;20020;-70
2021/04/04 11:27:40;;;;;;;23.25;9.32;;;10.40;98.80;;;;;;5064254;28;20023;-69
2021/04/04 11:30:30;;;;;;;19.75;9.73;;;10.50;98.90;;;;;;5071696;28;20032;-70
2021/04/04 11:33:18;;;;;;;17.77;9.10;;;10.40;99.10;;;;;;5059641;28;20055;-70
2021/04/04 11:35:57;;;;;;;29.88;10.82;;;10.40;98.50;;;;;;5063247;28;20064;-70
2021/04/04 11:38:22;;;;;;;18.40;9.95;;;10.40;98.60;;;;;;5061901;28;20593;-70
2021/04/04 11:41:12;;;;;;;20.35;9.52;;;10.50;98.50;;;;;;5061043;28;20028;-70
2021/04/04 11:43:38;;;;;;;18.30;10.65;;;10.60;98.30;;;;;;5058743;28;20036;-70
2021/04/04 11:46:04;;;;;;;20.10;9.65;;;10.60;98.70;;;;;;5068491;28;20031;-70
2021/04/04 11:48:35;;;;;;;22.85;9.82;;;10.70;97.90;;;;;;5066373;28;20021;-70
2021/04/04 11:51:10;;;;;;;23.50;11.02;;;10.80;97.50;;;;;;5066707;28;20074;-70
2021/04/04 11:53:42;;;;;;;19.20;10.40;;;10.90;98.30;;;;;;5072305;28;20074;-70
2021/04/04 11:56:08;;;;;;;27.25;11.35;;;10.90;97.70;;;;;;5069763;28;20107;-70
2021/04/04 11:58:34;;;;;;;17.42;10.23;;;10.80;97.00;;;;;;5062454;28;20036;-70
2021/04/04 12:01:00;;;;;;;20.35;10.48;;;10.80;97.70;;;;;;5064527;28;20044;-70
2021/04/04 12:03:27;;;;;;;24.00;11.15;;;10.80;97.40;;;;;;5070782;28;20012;-70
2021/04/04 12:05:53;;;;;;;20.58;11.25;;;10.70;97.70;;;;;;5061744;28;20025;-70
2021/04/04 12:08:29;;;;;;;18.58;10.32;;;10.70;98.10;;;;;;5048005;28;21287;-70
2021/04/04 12:10:56;;;;;;;20.23;10.18;;;10.90;97.20;;;;;;5063564;28;20013;-69
2021/04/04 12:13:22;;;;;;;27.05;11.85;;;10.90;96.70;;;;;;5068495;28;20407;-70
2021/04/04 12:15:47;;;;;;;30.35;10.68;;;11.00;97.50;;;;;;5066799;28;20024;-70
2021/04/04 12:18:13;;;;;;;21.10;10.05;;;11.10;96.90;;;;;;5068954;28;20389;-70
2021/04/04 12:20:39;;;;;;;20.83;11.30;;;11.00;96.70;;;;;;5063207;28;20036;-70
2021/04/04 12:23:13;;;;;;;23.67;11.40;;;11.00;96.60;;;;;;5067358;28;20045;-69
2021/04/04 12:25:39;;;;;;;18.20;10.50;;;11.10;96.60;;;;;;5062079;28;20531;-69
2021/04/04 12:28:05;;;;;;;19.25;11.27;;;11.10;97.30;;;;;;5067323;28;20133;-70
2021/04/04 12:30:41;;;;;;;23.17;11.20;;;11.20;96.60;;;;;;5070536;28;20036;-70
2021/04/04 12:33:14;;;;;;;23.80;10.75;;;11.20;96.80;;;;;;5064581;28;20020;-70
2021/04/04 12:35:47;;;;;;;23.50;11.07;;;11.20;96.90;;;;;;5070122;28;20032;-71
2021/04/04 12:38:27;;;;;;;22.25;10.60;;;11.30;97.20;;;;;;5066579;28;20024;-70
2021/04/04 12:40:55;;;;;;;23.52;11.27;;;11.50;96.70;;;;;;5069159;28;20512;-70
2021/04/04 12:43:20;;;;;;;24.08;11.57;;;11.50;96.10;;;;;;5075956;28;20077;-70
2021/04/04 12:45:46;;;;;;;25.20;11.00;;;11.50;96.40;;;;;;5071599;28;20489;-69
2021/04/04 12:48:12;;;;;;;27.83;11.75;;;11.60;96.20;;;;;;5066419;28;20031;-70
2021/04/04 12:50:37;;;;;;;25.17;12.43;;;11.50;96.90;;;;;;5065212;28;20052;-70
2021/04/04 12:53:03;;;;;;;20.50;11.15;;;11.80;96.40;;;;;;5075507;28;20024;-71
2021/04/04 12:55:33;;;;;;;19.42;10.73;;;11.90;95.90;;;;;;5073885;28;20041;-70
2021/04/04 12:58:00;;;;;;;24.60;12.15;;;11.90;96.20;;;;;;5071109;28;20029;-69
2021/04/04 13:00:39;;;;;;;19.88;12.07;;;11.90;97.10;;;;;;5078704;28;20033;-70
2021/04/04 13:03:12;;;;;;;27.35;12.93;;;11.80;96.40;;;;;;5070305;28;20021;-70
2021/04/04 13:05:52;;;;;;;24.65;12.85;;;11.80;95.40;;;;;;5064766;28;20021;-70